createdAt,value
2018-12-13T00:02:10.767Z,-1.00
2018-12-13T00:04:40.207Z,-1.00
2018-12-13T00:07:09.604Z,-1.10
2018-12-13T00:09:39.023Z,-1.20
2018-12-13T00:12:08.223Z,-1.20
2018-12-13T00:14:37.435Z,-1.20
2018-12-13T00:17:06.655Z,-1.30
2018-12-13T00:19:35.802Z,-1.30
2018-12-13T00:22:05.402Z,-1.40
2018-12-13T00:24:34.634Z,-1.40
2018-12-13T00:27:03.826Z,-1.40
2018-12-13T00:29:33.202Z,-1.40
2018-12-13T00:32:02.489Z,-1.30
2018-12-13T00:34:31.574Z,-1.30
2018-12-13T00:37:00.702Z,-1.30
2018-12-13T00:39:29.937Z,-1.30
2018-12-13T00:41:59.089Z,-1.30
2018-12-13T00:44:28.347Z,-1.20
2018-12-13T00:46:57.892Z,-1.10
2018-12-13T00:49:27.365Z,-1.10
2018-12-13T00:51:56.634Z,-1.10
2018-12-13T00:54:25.878Z,-1.10
2018-12-13T00:56:55.019Z,-1.10
2018-12-13T00:59:24.540Z,-1.10
2018-12-13T01:01:53.652Z,-1.00
2018-12-13T01:04:22.839Z,-1.00
2018-12-13T01:06:52.570Z,-1.00
2018-12-13T01:09:22.712Z,-1.00
2018-12-13T01:11:52.399Z,-1.00
2018-12-13T01:14:21.679Z,-1.00
2018-12-13T01:16:51.088Z,-1.00
2018-12-13T01:19:20.166Z,-1.00
2018-12-13T01:21:49.378Z,-1.00
2018-12-13T01:24:18.523Z,-1.00
2018-12-13T01:26:47.531Z,-1.00
2018-12-13T01:29:16.278Z,-1.10
2018-12-13T01:31:45.479Z,-1.20
2018-12-13T01:34:14.576Z,-1.20
2018-12-13T01:36:43.898Z,-1.40
2018-12-13T01:39:13.652Z,-1.40
2018-12-13T01:41:42.934Z,-1.50
2018-12-13T01:44:12.151Z,-1.60
2018-12-13T01:46:41.443Z,-1.60
2018-12-13T01:49:11.077Z,-1.50
2018-12-13T01:51:40.349Z,-1.40
2018-12-13T01:54:09.681Z,-1.30
2018-12-13T01:56:38.914Z,-1.20
2018-12-13T01:59:08.171Z,-1.00
2018-12-13T02:01:37.534Z,-0.90
2018-12-13T02:04:06.739Z,-0.80
2018-12-13T02:06:35.960Z,-0.80
2018-12-13T02:09:06.329Z,-0.70
2018-12-13T02:11:35.739Z,-0.60
2018-12-13T02:14:05.092Z,-0.60
2018-12-13T02:16:34.334Z,-0.60
2018-12-13T02:19:03.514Z,-0.60
2018-12-13T02:21:32.880Z,-0.60
2018-12-13T02:24:02.273Z,-0.70
2018-12-13T02:26:31.756Z,-0.80
2018-12-13T02:29:01.063Z,-0.90
2018-12-13T02:31:30.219Z,-1.00
2018-12-13T02:33:59.495Z,-1.10
2018-12-13T02:36:28.778Z,-1.10
2018-12-13T02:38:59.159Z,-1.10
2018-12-13T02:41:28.880Z,-1.10
2018-12-13T02:43:58.414Z,-1.20
2018-12-13T02:46:27.435Z,-1.10
2018-12-13T02:49:06.281Z,-1.20
2018-12-13T02:51:35.491Z,-1.20
2018-12-13T02:54:04.882Z,-1.20
2018-12-13T02:56:34.153Z,-1.10
2018-12-13T02:59:03.361Z,-1.10
2018-12-13T03:01:32.738Z,-1.10
2018-12-13T03:04:01.771Z,-1.10
2018-12-13T03:06:31.096Z,-1.10
2018-12-13T03:09:00.919Z,-1.10
2018-12-13T03:11:29.988Z,-1.10
2018-12-13T03:13:58.990Z,-1.00
2018-12-13T03:16:28.361Z,-1.00
2018-12-13T03:18:57.684Z,-1.00
2018-12-13T03:21:27.094Z,-0.90
2018-12-13T03:23:56.271Z,-0.90
2018-12-13T03:26:25.534Z,-0.90
2018-12-13T03:28:55.440Z,-0.90
2018-12-13T03:31:24.794Z,-1.00
2018-12-13T03:33:54.486Z,-1.00
2018-12-13T03:36:23.702Z,-1.00
2018-12-13T03:38:53.066Z,-1.00
2018-12-13T03:41:21.867Z,-1.00
2018-12-13T03:43:51.095Z,-1.00
2018-12-13T03:46:20.257Z,-1.00
2018-12-13T03:48:49.411Z,-1.00
2018-12-13T03:51:18.431Z,-1.00
2018-12-13T03:53:47.724Z,-1.00
2018-12-13T03:56:17.119Z,-1.00
2018-12-13T03:58:45.934Z,-1.00
2018-12-13T04:01:15.369Z,-1.00
2018-12-13T04:03:44.451Z,-1.10
2018-12-13T04:06:13.735Z,-1.10
2018-12-13T04:08:43.054Z,-1.20
2018-12-13T04:11:12.172Z,-1.20
2018-12-13T04:13:41.479Z,-1.20
2018-12-13T04:16:10.416Z,-1.20
2018-12-13T04:18:39.518Z,-1.30
2018-12-13T04:21:08.698Z,-1.30
2018-12-13T04:23:37.921Z,-1.30
2018-12-13T04:26:07.153Z,-1.20
2018-12-13T04:28:36.214Z,-1.30
2018-12-13T04:31:05.552Z,-1.30
2018-12-13T04:33:34.888Z,-1.30
2018-12-13T04:36:04.096Z,-1.40
2018-12-13T04:38:34.305Z,-1.40
2018-12-13T04:41:03.550Z,-1.40
2018-12-13T04:43:33.003Z,-1.50
2018-12-13T04:46:02.316Z,-1.50
2018-12-13T04:48:31.652Z,-1.60
2018-12-13T04:51:01.097Z,-1.60
2018-12-13T04:53:30.379Z,-1.70
2018-12-13T04:56:00.128Z,-1.70
2018-12-13T04:58:29.344Z,-1.70
2018-12-13T05:00:58.212Z,-1.70
2018-12-13T05:03:27.829Z,-1.70
2018-12-13T05:05:57.251Z,-1.70
2018-12-13T05:08:26.663Z,-1.60
2018-12-13T05:10:56.131Z,-1.60
2018-12-13T05:13:25.843Z,-1.60
2018-12-13T05:15:55.159Z,-1.60
2018-12-13T05:18:24.354Z,-1.50
2018-12-13T05:20:53.398Z,-1.50
2018-12-13T05:23:23.079Z,-1.50
2018-12-13T05:25:52.007Z,-1.40
2018-12-13T05:28:21.403Z,-1.40
2018-12-13T05:30:50.773Z,-1.40
2018-12-13T05:33:19.944Z,-1.40
2018-12-13T05:35:48.984Z,-1.30
2018-12-13T05:38:18.107Z,-1.30
2018-12-13T05:40:47.360Z,-1.20
2018-12-13T05:43:17.039Z,-1.20
2018-12-13T05:45:46.170Z,-1.20
2018-12-13T05:48:15.350Z,-1.20
2018-12-13T05:50:44.343Z,-1.20
2018-12-13T05:53:13.470Z,-1.10
2018-12-13T05:55:43.004Z,-1.10
2018-12-13T05:58:12.090Z,-1.20
2018-12-13T06:00:41.570Z,-1.20
2018-12-13T06:03:10.713Z,-1.20
2018-12-13T06:05:39.665Z,-1.20
2018-12-13T06:08:09.037Z,-1.10
2018-12-13T06:10:38.694Z,-1.10
2018-12-13T06:13:07.810Z,-1.10
2018-12-13T06:15:37.328Z,-1.10
2018-12-13T06:18:06.939Z,-1.10
2018-12-13T06:20:37.154Z,-1.10
2018-12-13T06:23:06.453Z,-1.10
2018-12-13T06:25:35.909Z,-1.00
2018-12-13T06:28:05.263Z,-1.10
2018-12-13T06:30:34.732Z,-1.00
2018-12-13T06:33:03.754Z,-1.00
2018-12-13T06:35:33.306Z,-1.00
2018-12-13T06:38:03.015Z,-1.00
2018-12-13T06:40:33.868Z,-1.00
2018-12-13T06:43:03.083Z,-1.00
2018-12-13T06:45:32.304Z,-1.00
2018-12-13T06:48:01.721Z,-1.00
2018-12-13T06:50:31.012Z,-1.00
2018-12-13T06:53:00.142Z,-1.10
2018-12-13T06:55:29.470Z,-1.00
2018-12-13T06:57:58.709Z,-1.00
2018-12-13T07:00:27.656Z,-1.10
2018-12-13T07:02:56.947Z,-1.00
2018-12-13T07:05:26.298Z,-1.00
2018-12-13T07:07:55.647Z,-1.10
2018-12-13T07:10:24.991Z,-1.10
2018-12-13T07:12:54.137Z,-1.10
2018-12-13T07:15:23.466Z,-1.10
2018-12-13T07:17:52.684Z,-1.10
2018-12-13T07:20:21.922Z,-1.10
2018-12-13T07:22:51.064Z,-1.10
2018-12-13T07:25:20.598Z,-1.10
2018-12-13T07:27:49.974Z,-1.10
2018-12-13T07:30:19.130Z,-1.10
2018-12-13T07:32:48.427Z,-1.10
2018-12-13T07:35:17.560Z,-1.10
2018-12-13T07:37:46.713Z,-1.10
2018-12-13T07:40:15.975Z,-1.00
2018-12-13T07:42:45.119Z,-1.00
2018-12-13T07:45:14.346Z,-1.00
2018-12-13T07:47:43.688Z,-1.00
2018-12-13T07:50:12.850Z,-0.90
2018-12-13T07:52:42.600Z,-0.90
2018-12-13T07:55:11.736Z,-0.80
2018-12-13T07:57:41.210Z,-0.80
2018-12-13T08:00:11.280Z,-0.80
2018-12-13T08:02:40.443Z,-0.80
2018-12-13T08:05:10.103Z,-0.70
2018-12-13T08:07:38.927Z,-0.70
2018-12-13T08:10:08.120Z,-0.70
2018-12-13T08:12:37.448Z,-0.60
2018-12-13T08:15:06.544Z,-0.70
2018-12-13T08:17:35.834Z,-0.70
2018-12-13T08:20:05.753Z,-0.60
2018-12-13T08:22:35.007Z,-0.60
2018-12-13T08:25:04.314Z,-0.60
2018-12-13T08:27:33.557Z,-0.60
2018-12-13T08:30:03.122Z,-0.60
2018-12-13T08:32:32.307Z,-0.50
2018-12-13T08:35:01.530Z,-0.50
2018-12-13T08:37:31.002Z,-0.50
2018-12-13T08:40:00.202Z,-0.50
2018-12-13T08:42:29.035Z,-0.40
2018-12-13T08:44:58.277Z,-0.40
2018-12-13T08:47:27.326Z,-0.30
2018-12-13T08:49:56.693Z,-0.20
2018-12-13T08:52:26.400Z,-0.20
2018-12-13T08:54:55.721Z,-0.20
2018-12-13T08:57:24.783Z,-0.20
2018-12-13T08:59:53.833Z,-0.20
2018-12-13T09:02:22.974Z,-0.10
2018-12-13T09:04:52.253Z,-0.10
2018-12-13T09:07:21.634Z,-0.20
2018-12-13T09:09:51.122Z,-0.10
2018-12-13T09:12:20.783Z,-0.20
2018-12-13T09:14:50.180Z,-0.20
2018-12-13T09:17:18.904Z,-0.30
2018-12-13T09:19:48.298Z,-0.20
2018-12-13T09:22:17.615Z,-0.20
2018-12-13T09:24:46.934Z,-0.20
2018-12-13T09:27:16.712Z,-0.20
2018-12-13T09:29:46.369Z,-0.20
2018-12-13T09:32:15.590Z,-0.30
2018-12-13T09:34:44.551Z,-0.30
2018-12-13T09:37:14.175Z,-0.30
2018-12-13T09:39:43.354Z,-0.30
2018-12-13T09:42:12.638Z,-0.20
2018-12-13T09:44:41.774Z,-0.10
2018-12-13T09:47:10.999Z,-0.10
2018-12-13T09:49:40.075Z,-0.10
2018-12-13T09:52:09.115Z,-0.10
2018-12-13T09:54:38.642Z,-0.20
2018-12-13T09:57:07.955Z,-0.20
2018-12-13T09:59:37.304Z,-0.20
2018-12-13T10:02:06.738Z,-0.20
2018-12-13T10:04:36.066Z,-0.30
2018-12-13T10:07:05.178Z,-0.30
2018-12-13T10:09:34.358Z,-0.30
2018-12-13T10:12:04.146Z,-0.30
2018-12-13T10:14:33.384Z,-0.20
2018-12-13T10:17:02.386Z,-0.20
2018-12-13T10:19:31.546Z,-0.20
2018-12-13T10:22:00.595Z,-0.20
2018-12-13T10:24:29.726Z,-0.10
2018-12-13T10:26:58.653Z,-0.10
2018-12-13T10:29:28.243Z,-0.10
2018-12-13T10:31:57.930Z,0.00
2018-12-13T10:34:27.634Z,-0.10
2018-12-13T10:36:57.260Z,0.00
2018-12-13T10:39:26.203Z,0.00
2018-12-13T10:41:55.518Z,0.10
2018-12-13T10:44:29.698Z,0.10
2018-12-13T10:46:59.461Z,0.20
2018-12-13T10:49:28.591Z,0.20
2018-12-13T10:51:58.255Z,0.20
2018-12-13T10:54:27.623Z,0.20
2018-12-13T10:56:56.910Z,0.20
2018-12-13T10:59:26.559Z,0.20
2018-12-13T11:02:01.830Z,0.30
2018-12-13T11:04:31.111Z,0.20
2018-12-13T11:07:00.345Z,0.20
2018-12-13T11:09:29.224Z,0.30
2018-12-13T11:11:58.269Z,0.30
2018-12-13T11:14:27.394Z,0.40
2018-12-13T11:16:56.431Z,0.40
2018-12-13T11:19:25.845Z,0.50
2018-12-13T11:21:54.864Z,0.50
2018-12-13T11:24:23.963Z,0.30
2018-12-13T11:26:53.437Z,0.40
2018-12-13T11:29:34.389Z,0.30
2018-12-13T11:32:03.480Z,0.40
2018-12-13T11:34:32.606Z,0.30
2018-12-13T11:37:01.796Z,0.30
2018-12-13T11:39:30.835Z,0.20
2018-12-13T11:41:59.873Z,0.20
2018-12-13T11:44:29.339Z,0.20
2018-12-13T11:46:58.778Z,0.20
2018-12-13T11:49:27.906Z,0.20
2018-12-13T11:51:57.284Z,0.10
2018-12-13T11:54:44.231Z,0.10
2018-12-13T11:57:13.721Z,0.10
2018-12-13T11:59:42.982Z,0.10
2018-12-13T12:02:12.120Z,0.20
2018-12-13T12:04:41.488Z,0.30
2018-12-13T12:07:10.816Z,0.20
2018-12-13T12:09:40.095Z,0.20
2018-12-13T12:12:09.426Z,0.20
2018-12-13T12:14:39.123Z,0.20
2018-12-13T12:17:08.235Z,0.10
2018-12-13T12:19:37.302Z,0.10
2018-12-13T12:22:06.723Z,0.00
2018-12-13T12:24:35.808Z,0.00
2018-12-13T12:27:05.087Z,0.00
2018-12-13T12:29:34.232Z,0.00
2018-12-13T12:32:03.654Z,-0.10
2018-12-13T12:34:32.838Z,-0.10
2018-12-13T12:37:02.088Z,-0.10
2018-12-13T12:39:31.212Z,-0.10
2018-12-13T12:42:01.987Z,-0.10
2018-12-13T12:44:35.030Z,-0.10
2018-12-13T12:47:04.347Z,-0.10
2018-12-13T12:49:33.569Z,-0.20
2018-12-13T12:52:02.769Z,-0.20
2018-12-13T12:54:32.018Z,-0.10
2018-12-13T12:57:01.249Z,-0.10
2018-12-13T12:59:30.526Z,-0.10
2018-12-13T13:01:59.826Z,-0.20
2018-12-13T13:04:29.419Z,-0.20
2018-12-13T13:06:58.554Z,-0.20
2018-12-13T13:09:28.049Z,-0.20
2018-12-13T13:11:57.350Z,-0.20
2018-12-13T13:14:26.473Z,-0.30
2018-12-13T13:16:56.115Z,-0.30
2018-12-13T13:19:25.595Z,-0.30
2018-12-13T13:21:54.995Z,-0.20
2018-12-13T13:24:24.270Z,-0.20
2018-12-13T13:26:53.571Z,-0.20
2018-12-13T13:29:22.644Z,-0.20
2018-12-13T13:31:52.103Z,-0.20
2018-12-13T13:34:21.377Z,-0.20
2018-12-13T13:36:50.895Z,-0.30
2018-12-13T13:39:20.062Z,-0.30
2018-12-13T13:41:49.065Z,-0.30
2018-12-13T13:44:18.680Z,-0.30
2018-12-13T13:46:48.102Z,-0.30
2018-12-13T13:49:17.415Z,-0.20
2018-12-13T13:51:46.588Z,-0.30
2018-12-13T13:54:15.694Z,-0.20
2018-12-13T13:56:45.050Z,-0.30
2018-12-13T13:59:14.202Z,-0.20
2018-12-13T14:01:43.522Z,-0.30
2018-12-13T14:04:12.791Z,-0.20
2018-12-13T14:06:43.032Z,-0.30
2018-12-13T14:09:12.435Z,-0.20
2018-12-13T14:11:41.912Z,-0.30
2018-12-13T14:14:11.070Z,-0.30
2018-12-13T14:16:40.117Z,-0.30
2018-12-13T14:19:09.408Z,-0.30
2018-12-13T14:21:38.696Z,-0.30
2018-12-13T14:24:08.155Z,-0.30
2018-12-13T14:26:36.950Z,-0.30
2018-12-13T14:29:06.186Z,-0.30
2018-12-13T14:31:35.467Z,-0.30
2018-12-13T14:34:04.885Z,-0.30
2018-12-13T14:36:34.090Z,-0.30
2018-12-13T14:39:04.448Z,-0.30
2018-12-13T14:41:33.755Z,-0.30
2018-12-13T14:44:03.168Z,-0.40
2018-12-13T14:46:32.345Z,-0.40
2018-12-13T14:49:01.495Z,-0.40
2018-12-13T14:51:31.649Z,-0.40
2018-12-13T14:54:00.980Z,-0.40
2018-12-13T14:56:30.231Z,-0.50
2018-12-13T14:58:59.636Z,-0.50
2018-12-13T15:01:29.337Z,-0.50
2018-12-13T15:03:58.446Z,-0.60
2018-12-13T15:06:27.935Z,-0.50
2018-12-13T15:08:57.275Z,-0.60
2018-12-13T15:11:26.376Z,-0.60
2018-12-13T15:13:55.451Z,-0.60
2018-12-13T15:16:24.895Z,-0.60
2018-12-13T15:18:54.045Z,-0.60
2018-12-13T15:21:23.712Z,-0.60
2018-12-13T15:23:53.015Z,-0.60
2018-12-13T15:26:22.181Z,-0.60
2018-12-13T15:28:51.275Z,-0.60
2018-12-13T15:31:20.247Z,-0.70
2018-12-13T15:33:49.876Z,-0.60
2018-12-13T15:36:18.927Z,-0.70
2018-12-13T15:38:48.375Z,-0.70
2018-12-13T15:41:17.407Z,-0.60
2018-12-13T15:43:46.514Z,-0.70
2018-12-13T15:46:15.786Z,-0.60
2018-12-13T15:48:45.406Z,-0.60
2018-12-13T15:51:14.711Z,-0.60
2018-12-13T15:53:44.070Z,-0.60
2018-12-13T15:56:13.303Z,-0.60
2018-12-13T15:58:42.739Z,-0.60
2018-12-13T16:01:12.249Z,-0.60
2018-12-13T16:03:41.318Z,-0.60
2018-12-13T16:06:10.591Z,-0.70
2018-12-13T16:08:39.834Z,-0.60
2018-12-13T16:11:09.280Z,-0.70
2018-12-13T16:13:38.609Z,-0.60
2018-12-13T16:16:07.911Z,-0.70
2018-12-13T16:18:37.055Z,-0.60
2018-12-13T16:21:06.474Z,-0.60
2018-12-13T16:23:35.965Z,-0.60
2018-12-13T16:26:05.323Z,-0.60
2018-12-13T16:28:34.624Z,-0.60
2018-12-13T16:31:03.528Z,-0.50
2018-12-13T16:33:32.827Z,-0.60
2018-12-13T16:36:02.366Z,-0.60
2018-12-13T16:38:31.761Z,-0.60
2018-12-13T16:41:00.884Z,-0.60
2018-12-13T16:43:30.566Z,-0.60
2018-12-13T16:45:59.949Z,-0.60
2018-12-13T16:48:29.016Z,-0.60
2018-12-13T16:50:58.173Z,-0.60
2018-12-13T16:53:27.226Z,-0.60
2018-12-13T16:55:56.596Z,-0.60
2018-12-13T16:58:26.000Z,-0.60
2018-12-13T17:00:55.427Z,-0.60
2018-12-13T17:03:38.171Z,-0.60
2018-12-13T17:06:07.458Z,-0.60
2018-12-13T17:08:36.595Z,-0.60
2018-12-13T17:11:06.290Z,-0.60
2018-12-13T17:13:35.344Z,-0.60
2018-12-13T17:16:04.579Z,-0.60
2018-12-13T17:18:33.885Z,-0.60
2018-12-13T17:21:03.764Z,-0.50
2018-12-13T17:23:32.880Z,-0.50
2018-12-13T17:26:02.135Z,-0.50
2018-12-13T17:28:31.494Z,-0.50
2018-12-13T17:31:00.768Z,-0.50
2018-12-13T17:33:30.109Z,-0.50
2018-12-13T17:35:59.376Z,-0.50
2018-12-13T17:38:28.549Z,-0.50
2018-12-13T17:40:57.824Z,-0.50
2018-12-13T17:43:26.954Z,-0.50
2018-12-13T17:45:56.141Z,-0.50
2018-12-13T17:48:25.189Z,-0.50
2018-12-13T17:50:54.510Z,-0.50
2018-12-13T17:53:23.632Z,-0.50
2018-12-13T17:55:52.617Z,-0.50
2018-12-13T17:58:22.224Z,-0.50
2018-12-13T18:00:51.348Z,-0.50
2018-12-13T18:03:20.508Z,-0.50
2018-12-13T18:05:49.603Z,-0.50
2018-12-13T18:08:19.225Z,-0.50
2018-12-13T18:10:48.360Z,-0.50
2018-12-13T18:13:17.603Z,-0.50
2018-12-13T18:15:46.759Z,-0.50
2018-12-13T18:18:16.430Z,-0.40
2018-12-13T18:20:45.736Z,-0.40
2018-12-13T18:23:15.035Z,-0.40
2018-12-13T18:25:44.523Z,-0.40
2018-12-13T18:28:13.854Z,-0.40
2018-12-13T18:30:42.944Z,-0.50
2018-12-13T18:33:12.386Z,-0.40
2018-12-13T18:35:41.672Z,-0.40
2018-12-13T18:38:11.411Z,-0.40
2018-12-13T18:40:40.302Z,-0.40
2018-12-13T18:43:09.634Z,-0.40
2018-12-13T18:45:38.976Z,-0.40
2018-12-13T18:48:08.086Z,-0.40
2018-12-13T18:50:37.250Z,-0.40
2018-12-13T18:53:06.466Z,-0.40
2018-12-13T18:55:35.598Z,-0.40
2018-12-13T18:58:04.565Z,-0.40
2018-12-13T19:00:33.767Z,-0.40
2018-12-13T19:03:02.979Z,-0.40
2018-12-13T19:05:32.223Z,-0.40
2018-12-13T19:08:01.239Z,-0.40
2018-12-13T19:10:31.077Z,-0.40
2018-12-13T19:13:00.975Z,-0.40
2018-12-13T19:15:30.239Z,-0.40
2018-12-13T19:17:59.437Z,-0.40
2018-12-13T19:20:28.866Z,-0.40
2018-12-13T19:22:58.196Z,-0.40
2018-12-13T19:25:27.860Z,-0.40
2018-12-13T19:27:57.105Z,-0.40
2018-12-13T19:30:26.218Z,-0.40
2018-12-13T19:32:55.449Z,-0.40
2018-12-13T19:35:24.571Z,-0.40
2018-12-13T19:37:53.786Z,-0.40
2018-12-13T19:40:23.506Z,-0.40
2018-12-13T19:42:52.893Z,-0.40
2018-12-13T19:45:22.110Z,-0.40
2018-12-13T19:47:51.347Z,-0.40
2018-12-13T19:50:20.710Z,-0.40
2018-12-13T19:52:49.962Z,-0.40
2018-12-13T19:55:19.212Z,-0.50
2018-12-13T19:57:48.284Z,-0.40
2018-12-13T20:00:17.487Z,-0.40
2018-12-13T20:02:46.837Z,-0.40
2018-12-13T20:05:16.103Z,-0.40
2018-12-13T20:07:45.432Z,-0.50
2018-12-13T20:10:14.696Z,-0.50
2018-12-13T20:12:44.048Z,-0.40
2018-12-13T20:15:13.412Z,-0.40
2018-12-13T20:17:42.654Z,-0.40
2018-12-13T20:20:11.883Z,-0.40
2018-12-13T20:22:41.017Z,-0.40
2018-12-13T20:25:10.289Z,-0.40
2018-12-13T20:27:40.308Z,-0.50
2018-12-13T20:30:10.330Z,-0.40
2018-12-13T20:32:39.228Z,-0.40
2018-12-13T20:35:08.592Z,-0.40
2018-12-13T20:37:37.637Z,-0.40
2018-12-13T20:40:07.210Z,-0.40
2018-12-13T20:42:36.507Z,-0.40
2018-12-13T20:45:06.521Z,-0.40
2018-12-13T20:47:35.781Z,-0.40
2018-12-13T20:50:05.328Z,-0.40
2018-12-13T20:52:34.777Z,-0.40
2018-12-13T20:55:04.247Z,-0.50
2018-12-13T20:57:33.607Z,-0.50
2018-12-13T21:00:02.969Z,-0.50
2018-12-13T21:02:32.231Z,-0.50
2018-12-13T21:05:01.321Z,-0.40
2018-12-13T21:07:34.427Z,-0.40
2018-12-13T21:10:06.861Z,-0.40
2018-12-13T21:12:36.245Z,-0.40
2018-12-13T21:15:06.466Z,-0.50
2018-12-13T21:17:36.156Z,-0.40
2018-12-13T21:20:05.883Z,-0.40
2018-12-13T21:22:35.010Z,-0.40
2018-12-13T21:25:04.890Z,-0.40
2018-12-13T21:27:33.883Z,-0.40
2018-12-13T21:30:03.388Z,-0.40
2018-12-13T21:32:32.492Z,-0.40
2018-12-13T21:35:01.700Z,-0.40
2018-12-13T21:37:30.985Z,-0.40
2018-12-13T21:40:00.306Z,-0.40
2018-12-13T21:42:30.214Z,-0.40
2018-12-13T21:44:59.271Z,-0.40
2018-12-13T21:47:28.584Z,-0.40
2018-12-13T21:49:57.744Z,-0.40
2018-12-13T21:52:26.978Z,-0.40
2018-12-13T21:54:56.325Z,-0.40
2018-12-13T21:57:25.802Z,-0.40
2018-12-13T21:59:54.988Z,-0.40
2018-12-13T22:02:23.827Z,-0.50
2018-12-13T22:04:53.051Z,-0.50
2018-12-13T22:07:22.179Z,-0.50
2018-12-13T22:09:51.483Z,-0.40
2018-12-13T22:12:20.627Z,-0.40
2018-12-13T22:14:49.852Z,-0.40
2018-12-13T22:17:19.104Z,-0.40
2018-12-13T22:19:48.214Z,-0.50
2018-12-13T22:22:17.370Z,-0.40
2018-12-13T22:24:46.499Z,-0.40
2018-12-13T22:27:15.911Z,-0.50
2018-12-13T22:32:22.855Z,-0.50
2018-12-13T22:34:52.623Z,-0.50
2018-12-13T22:37:21.859Z,-0.50
2018-12-13T22:39:51.160Z,-0.50
2018-12-13T22:42:20.006Z,-0.50
2018-12-13T22:44:49.337Z,-0.50
2018-12-13T22:47:19.647Z,-0.50
2018-12-13T22:49:48.718Z,-0.50
2018-12-13T22:52:17.793Z,-0.50
2018-12-13T22:54:46.912Z,-0.50
2018-12-13T22:57:16.218Z,-0.50
2018-12-13T22:59:46.426Z,-0.60
2018-12-13T23:02:16.123Z,-0.60
2018-12-13T23:04:45.433Z,-0.60
2018-12-13T23:07:14.658Z,-0.50
2018-12-13T23:09:43.715Z,-0.50
2018-12-13T23:12:12.828Z,-0.50
2018-12-13T23:14:42.700Z,-0.60
2018-12-13T23:17:11.948Z,-0.50
2018-12-13T23:19:41.031Z,-0.50
2018-12-13T23:22:10.193Z,-0.60
2018-12-13T23:24:39.632Z,-0.60
2018-12-13T23:27:09.331Z,-0.60
2018-12-13T23:29:38.261Z,-0.60
2018-12-13T23:32:07.902Z,-0.50
2018-12-13T23:34:38.274Z,-0.60
2018-12-13T23:37:07.555Z,-0.60
2018-12-13T23:39:37.096Z,-0.60
2018-12-13T23:42:06.750Z,-0.60
2018-12-13T23:44:36.500Z,-0.60
2018-12-13T23:47:05.606Z,-0.60
2018-12-13T23:49:34.828Z,-0.60
2018-12-13T23:52:04.215Z,-0.60
2018-12-13T23:54:33.744Z,-0.60
2018-12-13T23:57:03.188Z,-0.60
2018-12-13T23:59:32.360Z,-0.60
